sensor_id;sensor_type;location;lat;lon;timestamp;P1;durP1;ratioP1;P2;durP2;ratioP2
15012;SDS011;7603;49.432;11.418;2022-12-20T00:00:42;20.63;;;11.13;;
15012;SDS011;7603;49.432;11.418;2022-12-20T00:03:09;17.03;;;10.03;;
15012;SDS011;7603;49.432;11.418;2022-12-20T00:05:38;18.40;;;9.73;;
15012;SDS011;7603;49.432;11.418;2022-12-20T00:08:05;17.73;;;9.93;;
15012;SDS011;7603;49.432;11.418;2022-12-20T00:10:37;15.97;;;10.33;;
15012;SDS011;7603;49.432;11.418;2022-12-20T00:13:05;16.83;;;10.43;;
15012;SDS011;7603;49.432;11.418;2022-12-20T00:15:31;17.67;;;10.30;;
15012;SDS011;7603;49.432;11.418;2022-12-20T00:17:57;18.47;;;9.83;;
15012;SDS011;7603;49.432;11.418;2022-12-20T00:20:24;22.10;;;10.47;;
15012;SDS011;7603;49.432;11.418;2022-12-20T00:22:51;19.87;;;11.53;;
15012;SDS011;7603;49.432;11.418;2022-12-20T00:25:17;17.33;;;10.07;;
15012;SDS011;7603;49.432;11.418;2022-12-20T00:27:44;17.97;;;9.77;;
15012;SDS011;7603;49.432;11.418;2022-12-20T00:30:09;18.13;;;10.50;;
15012;SDS011;7603;49.432;11.418;2022-12-20T00:32:35;20.77;;;10.97;;
15012;SDS011;7603;49.432;11.418;2022-12-20T00:35:01;24.23;;;10.60;;
15012;SDS011;7603;49.432;11.418;2022-12-20T00:37:27;17.27;;;9.83;;
15012;SDS011;7603;49.432;11.418;2022-12-20T00:39:52;14.17;;;10.27;;
15012;SDS011;7603;49.432;11.418;2022-12-20T00:42:18;16.10;;;9.63;;
15012;SDS011;7603;49.432;11.418;2022-12-20T00:44:44;25.50;;;12.93;;
15012;SDS011;7603;49.432;11.418;2022-12-20T00:47:09;19.70;;;10.60;;
15012;SDS011;7603;49.432;11.418;2022-12-20T00:49:35;19.77;;;11.80;;
15012;SDS011;7603;49.432;11.418;2022-12-20T00:52:00;23.20;;;11.67;;
15012;SDS011;7603;49.432;11.418;2022-12-20T00:54:26;16.27;;;10.43;;
15012;SDS011;7603;49.432;11.418;2022-12-20T00:56:52;18.07;;;11.07;;
15012;SDS011;7603;49.432;11.418;2022-12-20T00:59:17;17.30;;;10.37;;
15012;SDS011;7603;49.432;11.418;2022-12-20T01:01:45;16.53;;;10.70;;
15012;SDS011;7603;49.432;11.418;2022-12-20T01:04:11;21.10;;;11.23;;
15012;SDS011;7603;49.432;11.418;2022-12-20T01:06:37;14.93;;;10.73;;
15012;SDS011;7603;49.432;11.418;2022-12-20T01:09:03;19.30;;;9.67;;
15012;SDS011;7603;49.432;11.418;2022-12-20T01:11:30;18.87;;;10.50;;
15012;SDS011;7603;49.432;11.418;2022-12-20T01:13:59;18.53;;;10.57;;
15012;SDS011;7603;49.432;11.418;2022-12-20T01:16:44;22.73;;;10.27;;
15012;SDS011;7603;49.432;11.418;2022-12-20T01:19:11;15.73;;;9.47;;
15012;SDS011;7603;49.432;11.418;2022-12-20T01:21:38;16.20;;;9.87;;
15012;SDS011;7603;49.432;11.418;2022-12-20T01:24:09;17.43;;;10.23;;
15012;SDS011;7603;49.432;11.418;2022-12-20T01:26:38;14.93;;;10.07;;
15012;SDS011;7603;49.432;11.418;2022-12-20T01:29:04;20.00;;;10.83;;
15012;SDS011;7603;49.432;11.418;2022-12-20T01:31:30;15.23;;;9.57;;
15012;SDS011;7603;49.432;11.418;2022-12-20T01:33:56;17.77;;;10.60;;
15012;SDS011;7603;49.432;11.418;2022-12-20T01:36:23;20.20;;;11.03;;
15012;SDS011;7603;49.432;11.418;2022-12-20T01:38:57;18.60;;;10.83;;
15012;SDS011;7603;49.432;11.418;2022-12-20T01:41:25;20.60;;;11.50;;
15012;SDS011;7603;49.432;11.418;2022-12-20T01:43:53;16.90;;;11.37;;
15012;SDS011;7603;49.432;11.418;2022-12-20T01:46:22;20.63;;;10.87;;
15012;SDS011;7603;49.432;11.418;2022-12-20T01:51:33;20.83;;;13.53;;
15012;SDS011;7603;49.432;11.418;2022-12-20T01:57:07;19.83;;;11.87;;
15012;SDS011;7603;49.432;11.418;2022-12-20T01:59:40;17.77;;;10.33;;
15012;SDS011;7603;49.432;11.418;2022-12-20T02:02:10;17.53;;;11.27;;
15012;SDS011;7603;49.432;11.418;2022-12-20T02:04:37;20.97;;;10.60;;
15012;SDS011;7603;49.432;11.418;2022-12-20T02:07:03;22.33;;;11.50;;
15012;SDS011;7603;49.432;11.418;2022-12-20T02:09:30;22.97;;;10.97;;
15012;SDS011;7603;49.432;11.418;2022-12-20T02:31:44;16.90;;;10.47;;
15012;SDS011;7603;49.432;11.418;2022-12-20T02:34:15;20.57;;;11.07;;
15012;SDS011;7603;49.432;11.418;2022-12-20T02:36:42;20.80;;;11.00;;
15012;SDS011;7603;49.432;11.418;2022-12-20T02:39:10;16.20;;;11.13;;
15012;SDS011;7603;49.432;11.418;2022-12-20T02:41:38;15.90;;;10.60;;
15012;SDS011;7603;49.432;11.418;2022-12-20T02:44:09;20.27;;;10.87;;
15012;SDS011;7603;49.432;11.418;2022-12-20T02:46:59;20.90;;;11.57;;
15012;SDS011;7603;49.432;11.418;2022-12-20T02:49:27;18.77;;;11.70;;
15012;SDS011;7603;49.432;11.418;2022-12-20T02:51:55;22.23;;;13.50;;
15012;SDS011;7603;49.432;11.418;2022-12-20T02:54:23;25.73;;;11.97;;
15012;SDS011;7603;49.432;11.418;2022-12-20T02:56:50;24.90;;;11.77;;
15012;SDS011;7603;49.432;11.418;2022-12-20T02:59:55;16.00;;;10.53;;
15012;SDS011;7603;49.432;11.418;2022-12-20T03:02:25;19.53;;;10.83;;
15012;SDS011;7603;49.432;11.418;2022-12-20T03:04:51;18.30;;;10.73;;
15012;SDS011;7603;49.432;11.418;2022-12-20T03:07:19;14.50;;;10.13;;
15012;SDS011;7603;49.432;11.418;2022-12-20T03:09:45;18.67;;;11.70;;
15012;SDS011;7603;49.432;11.418;2022-12-20T03:12:11;17.40;;;11.70;;
15012;SDS011;7603;49.432;11.418;2022-12-20T03:14:40;23.50;;;10.87;;
15012;SDS011;7603;49.432;11.418;2022-12-20T03:17:06;18.10;;;11.03;;
15012;SDS011;7603;49.432;11.418;2022-12-20T03:19:32;20.30;;;11.23;;
15012;SDS011;7603;49.432;11.418;2022-12-20T03:21:57;20.70;;;10.70;;
15012;SDS011;7603;49.432;11.418;2022-12-20T03:24:24;18.23;;;11.37;;
15012;SDS011;7603;49.432;11.418;2022-12-20T03:26:50;16.60;;;10.20;;
15012;SDS011;7603;49.432;11.418;2022-12-20T03:29:16;18.73;;;10.37;;
15012;SDS011;7603;49.432;11.418;2022-12-20T03:31:41;15.47;;;11.73;;
15012;SDS011;7603;49.432;11.418;2022-12-20T03:34:07;21.13;;;10.90;;
15012;SDS011;7603;49.432;11.418;2022-12-20T03:36:33;21.33;;;11.63;;
15012;SDS011;7603;49.432;11.418;2022-12-20T03:38:59;13.57;;;10.00;;
15012;SDS011;7603;49.432;11.418;2022-12-20T03:41:24;15.73;;;9.93;;
15012;SDS011;7603;49.432;11.418;2022-12-20T03:43:51;21.90;;;12.20;;
15012;SDS011;7603;49.432;11.418;2022-12-20T03:46:17;22.20;;;11.80;;
15012;SDS011;7603;49.432;11.418;2022-12-20T03:48:43;25.03;;;12.27;;
15012;SDS011;7603;49.432;11.418;2022-12-20T03:51:09;19.37;;;9.87;;
15012;SDS011;7603;49.432;11.418;2022-12-20T03:53:36;20.77;;;11.63;;
15012;SDS011;7603;49.432;11.418;2022-12-20T03:56:01;17.57;;;10.80;;
15012;SDS011;7603;49.432;11.418;2022-12-20T03:58:28;16.70;;;11.20;;
15012;SDS011;7603;49.432;11.418;2022-12-20T04:00:55;17.63;;;10.77;;
15012;SDS011;7603;49.432;11.418;2022-12-20T04:03:21;18.67;;;10.60;;
15012;SDS011;7603;49.432;11.418;2022-12-20T04:05:47;17.80;;;10.47;;
15012;SDS011;7603;49.432;11.418;2022-12-20T04:08:13;23.20;;;10.60;;
15012;SDS011;7603;49.432;11.418;2022-12-20T04:10:39;21.00;;;11.67;;
15012;SDS011;7603;49.432;11.418;2022-12-20T04:13:23;14.93;;;10.93;;
15012;SDS011;7603;49.432;11.418;2022-12-20T04:15:49;21.30;;;10.83;;
15012;SDS011;7603;49.432;11.418;2022-12-20T04:18:14;21.73;;;11.23;;
15012;SDS011;7603;49.432;11.418;2022-12-20T04:20:40;20.07;;;12.37;;
15012;SDS011;7603;49.432;11.418;2022-12-20T04:23:06;21.67;;;10.67;;
15012;SDS011;7603;49.432;11.418;2022-12-20T04:25:32;20.03;;;10.67;;
15012;SDS011;7603;49.432;11.418;2022-12-20T04:27:58;19.33;;;10.87;;
15012;SDS011;7603;49.432;11.418;2022-12-20T04:30:23;17.60;;;11.23;;
15012;SDS011;7603;49.432;11.418;2022-12-20T04:32:49;20.40;;;11.10;;
15012;SDS011;7603;49.432;11.418;2022-12-20T04:35:18;23.17;;;11.57;;
15012;SDS011;7603;49.432;11.418;2022-12-20T04:37:44;15.03;;;10.90;;
15012;SDS011;7603;49.432;11.418;2022-12-20T04:40:11;27.03;;;11.87;;
15012;SDS011;7603;49.432;11.418;2022-12-20T04:42:37;14.87;;;10.57;;
15012;SDS011;7603;49.432;11.418;2022-12-20T04:45:03;21.87;;;11.10;;
15012;SDS011;7603;49.432;11.418;2022-12-20T04:47:29;15.90;;;10.53;;
15012;SDS011;7603;49.432;11.418;2022-12-20T04:49:55;18.27;;;10.67;;
15012;SDS011;7603;49.432;11.418;2022-12-20T04:52:20;16.37;;;10.70;;
15012;SDS011;7603;49.432;11.418;2022-12-20T04:55:05;22.03;;;12.03;;
15012;SDS011;7603;49.432;11.418;2022-12-20T04:57:31;16.37;;;10.93;;
15012;SDS011;7603;49.432;11.418;2022-12-20T04:59:56;24.27;;;11.83;;
15012;SDS011;7603;49.432;11.418;2022-12-20T05:02:22;17.73;;;9.77;;
15012;SDS011;7603;49.432;11.418;2022-12-20T05:04:48;24.27;;;13.07;;
15012;SDS011;7603;49.432;11.418;2022-12-20T05:07:13;19.40;;;11.43;;
15012;SDS011;7603;49.432;11.418;2022-12-20T05:09:39;17.07;;;11.57;;
15012;SDS011;7603;49.432;11.418;2022-12-20T05:12:05;25.03;;;11.37;;
15012;SDS011;7603;49.432;11.418;2022-12-20T05:14:31;18.00;;;11.20;;
15012;SDS011;7603;49.432;11.418;2022-12-20T05:16:56;21.50;;;11.30;;
15012;SDS011;7603;49.432;11.418;2022-12-20T05:19:22;21.47;;;11.17;;
15012;SDS011;7603;49.432;11.418;2022-12-20T05:21:48;17.47;;;11.10;;
15012;SDS011;7603;49.432;11.418;2022-12-20T05:24:32;18.07;;;12.20;;
15012;SDS011;7603;49.432;11.418;2022-12-20T05:27:16;16.55;;;11.00;;
15012;SDS011;7603;49.432;11.418;2022-12-20T05:29:42;23.17;;;11.80;;
15012;SDS011;7603;49.432;11.418;2022-12-20T05:32:08;16.93;;;11.60;;
15012;SDS011;7603;49.432;11.418;2022-12-20T05:34:33;16.80;;;10.27;;
15012;SDS011;7603;49.432;11.418;2022-12-20T05:36:59;20.77;;;12.07;;
15012;SDS011;7603;49.432;11.418;2022-12-20T05:39:24;21.47;;;11.67;;
15012;SDS011;7603;49.432;11.418;2022-12-20T05:41:51;17.50;;;11.10;;
15012;SDS011;7603;49.432;11.418;2022-12-20T05:44:17;15.07;;;9.60;;
15012;SDS011;7603;49.432;11.418;2022-12-20T05:46:44;15.67;;;10.37;;
15012;SDS011;7603;49.432;11.418;2022-12-20T05:49:10;19.33;;;10.90;;
15012;SDS011;7603;49.432;11.418;2022-12-20T05:51:35;22.87;;;12.57;;
15012;SDS011;7603;49.432;11.418;2022-12-20T05:54:01;19.93;;;12.37;;
15012;SDS011;7603;49.432;11.418;2022-12-20T05:56:27;17.23;;;11.47;;
15012;SDS011;7603;49.432;11.418;2022-12-20T05:58:52;20.10;;;11.37;;
15012;SDS011;7603;49.432;11.418;2022-12-20T06:01:18;20.47;;;10.33;;
15012;SDS011;7603;49.432;11.418;2022-12-20T06:03:44;21.90;;;10.93;;
15012;SDS011;7603;49.432;11.418;2022-12-20T06:06:13;17.60;;;10.20;;
15012;SDS011;7603;49.432;11.418;2022-12-20T06:08:39;20.30;;;10.50;;
15012;SDS011;7603;49.432;11.418;2022-12-20T06:11:04;17.27;;;10.20;;
15012;SDS011;7603;49.432;11.418;2022-12-20T06:13:31;20.03;;;10.07;;
15012;SDS011;7603;49.432;11.418;2022-12-20T06:15:56;19.37;;;10.93;;
15012;SDS011;7603;49.432;11.418;2022-12-20T06:18:22;14.77;;;9.97;;
15012;SDS011;7603;49.432;11.418;2022-12-20T06:20:49;19.27;;;9.40;;
15012;SDS011;7603;49.432;11.418;2022-12-20T06:23:15;11.97;;;9.10;;
15012;SDS011;7603;49.432;11.418;2022-12-20T06:25:41;16.60;;;10.10;;
15012;SDS011;7603;49.432;11.418;2022-12-20T06:28:07;15.80;;;9.83;;
15012;SDS011;7603;49.432;11.418;2022-12-20T06:30:33;18.47;;;10.03;;
15012;SDS011;7603;49.432;11.418;2022-12-20T06:32:59;20.70;;;10.70;;
15012;SDS011;7603;49.432;11.418;2022-12-20T06:35:26;16.40;;;9.17;;
15012;SDS011;7603;49.432;11.418;2022-12-20T06:37:51;29.43;;;13.97;;
15012;SDS011;7603;49.432;11.418;2022-12-20T06:40:17;26.57;;;12.47;;
15012;SDS011;7603;49.432;11.418;2022-12-20T06:42:43;22.37;;;10.67;;
15012;SDS011;7603;49.432;11.418;2022-12-20T06:45:08;20.70;;;11.00;;
15012;SDS011;7603;49.432;11.418;2022-12-20T06:47:34;20.47;;;11.33;;
15012;SDS011;7603;49.432;11.418;2022-12-20T06:50:01;20.77;;;9.13;;
15012;SDS011;7603;49.432;11.418;2022-12-20T06:52:28;17.43;;;9.93;;
15012;SDS011;7603;49.432;11.418;2022-12-20T06:54:53;12.27;;;9.30;;
15012;SDS011;7603;49.432;11.418;2022-12-20T06:57:19;13.60;;;9.27;;
15012;SDS011;7603;49.432;11.418;2022-12-20T06:59:45;14.40;;;9.27;;
15012;SDS011;7603;49.432;11.418;2022-12-20T07:02:11;14.47;;;10.07;;
15012;SDS011;7603;49.432;11.418;2022-12-20T07:04:36;11.40;;;9.27;;
15012;SDS011;7603;49.432;11.418;2022-12-20T07:07:02;15.87;;;10.93;;
15012;SDS011;7603;49.432;11.418;2022-12-20T07:09:28;13.07;;;8.90;;
15012;SDS011;7603;49.432;11.418;2022-12-20T07:11:55;14.87;;;9.33;;
15012;SDS011;7603;49.432;11.418;2022-12-20T07:14:21;15.20;;;9.13;;
15012;SDS011;7603;49.432;11.418;2022-12-20T07:16:47;12.03;;;9.53;;
15012;SDS011;7603;49.432;11.418;2022-12-20T07:19:14;18.97;;;9.30;;
15012;SDS011;7603;49.432;11.418;2022-12-20T07:21:40;15.53;;;9.73;;
15012;SDS011;7603;49.432;11.418;2022-12-20T07:24:07;18.07;;;10.33;;
15012;SDS011;7603;49.432;11.418;2022-12-20T07:26:34;26.20;;;11.33;;
15012;SDS011;7603;49.432;11.418;2022-12-20T07:29:00;19.27;;;9.87;;
15012;SDS011;7603;49.432;11.418;2022-12-20T07:31:25;15.63;;;9.40;;
15012;SDS011;7603;49.432;11.418;2022-12-20T07:33:51;13.93;;;9.37;;
15012;SDS011;7603;49.432;11.418;2022-12-20T07:36:17;15.97;;;10.30;;
15012;SDS011;7603;49.432;11.418;2022-12-20T07:38:43;16.10;;;9.93;;
15012;SDS011;7603;49.432;11.418;2022-12-20T07:41:10;14.20;;;8.60;;
15012;SDS011;7603;49.432;11.418;2022-12-20T07:43:38;14.43;;;8.97;;
15012;SDS011;7603;49.432;11.418;2022-12-20T07:46:04;10.93;;;8.03;;
15012;SDS011;7603;49.432;11.418;2022-12-20T07:48:30;16.73;;;9.57;;
15012;SDS011;7603;49.432;11.418;2022-12-20T07:51:02;11.63;;;7.47;;
15012;SDS011;7603;49.432;11.418;2022-12-20T07:53:32;16.20;;;9.00;;
15012;SDS011;7603;49.432;11.418;2022-12-20T07:56:02;12.97;;;8.40;;
15012;SDS011;7603;49.432;11.418;2022-12-20T07:58:30;15.17;;;8.60;;
15012;SDS011;7603;49.432;11.418;2022-12-20T08:00:58;13.87;;;8.60;;
15012;SDS011;7603;49.432;11.418;2022-12-20T08:03:29;12.03;;;8.17;;
15012;SDS011;7603;49.432;11.418;2022-12-20T08:05:59;17.90;;;8.37;;
15012;SDS011;7603;49.432;11.418;2022-12-20T08:08:28;12.07;;;7.77;;
15012;SDS011;7603;49.432;11.418;2022-12-20T08:10:56;10.23;;;7.73;;
15012;SDS011;7603;49.432;11.418;2022-12-20T08:13:23;17.90;;;9.03;;
15012;SDS011;7603;49.432;11.418;2022-12-20T08:15:49;14.40;;;8.70;;
15012;SDS011;7603;49.432;11.418;2022-12-20T08:18:15;13.57;;;8.23;;
15012;SDS011;7603;49.432;11.418;2022-12-20T08:20:40;12.30;;;7.50;;
15012;SDS011;7603;49.432;11.418;2022-12-20T08:23:06;12.90;;;7.23;;
15012;SDS011;7603;49.432;11.418;2022-12-20T08:25:33;11.13;;;7.53;;
15012;SDS011;7603;49.432;11.418;2022-12-20T08:27:59;17.73;;;8.50;;
15012;SDS011;7603;49.432;11.418;2022-12-20T08:30:26;14.93;;;7.23;;
15012;SDS011;7603;49.432;11.418;2022-12-20T08:32:52;12.07;;;7.77;;
15012;SDS011;7603;49.432;11.418;2022-12-20T08:35:19;12.17;;;7.60;;
15012;SDS011;7603;49.432;11.418;2022-12-20T08:37:44;8.97;;;7.27;;
15012;SDS011;7603;49.432;11.418;2022-12-20T08:40:10;9.53;;;6.77;;
15012;SDS011;7603;49.432;11.418;2022-12-20T08:42:36;11.33;;;7.00;;
15012;SDS011;7603;49.432;11.418;2022-12-20T08:45:02;11.70;;;7.07;;
15012;SDS011;7603;49.432;11.418;2022-12-20T08:47:29;8.40;;;6.97;;
15012;SDS011;7603;49.432;11.418;2022-12-20T08:49:54;10.30;;;6.53;;
15012;SDS011;7603;49.432;11.418;2022-12-20T08:52:20;15.93;;;8.33;;
15012;SDS011;7603;49.432;11.418;2022-12-20T08:54:46;10.07;;;7.10;;
15012;SDS011;7603;49.432;11.418;2022-12-20T08:57:12;10.00;;;7.60;;
15012;SDS011;7603;49.432;11.418;2022-12-20T08:59:37;13.57;;;7.77;;
15012;SDS011;7603;49.432;11.418;2022-12-20T09:02:03;11.43;;;7.00;;
15012;SDS011;7603;49.432;11.418;2022-12-20T09:04:29;12.17;;;7.47;;
15012;SDS011;7603;49.432;11.418;2022-12-20T09:06:55;8.93;;;7.13;;
15012;SDS011;7603;49.432;11.418;2022-12-20T09:09:21;11.68;;;7.43;;
15012;SDS011;7603;49.432;11.418;2022-12-20T09:11:46;11.98;;;7.50;;
15012;SDS011;7603;49.432;11.418;2022-12-20T09:14:12;9.30;;;7.22;;
15012;SDS011;7603;49.432;11.418;2022-12-20T09:16:38;12.88;;;7.32;;
15012;SDS011;7603;49.432;11.418;2022-12-20T09:19:04;12.00;;;8.05;;
15012;SDS011;7603;49.432;11.418;2022-12-20T09:21:29;12.90;;;7.93;;
15012;SDS011;7603;49.432;11.418;2022-12-20T09:23:56;10.17;;;7.67;;
15012;SDS011;7603;49.432;11.418;2022-12-20T09:26:22;11.48;;;7.68;;
15012;SDS011;7603;49.432;11.418;2022-12-20T09:28:48;9.87;;;7.00;;
15012;SDS011;7603;49.432;11.418;2022-12-20T09:31:24;9.50;;;6.70;;
15012;SDS011;7603;49.432;11.418;2022-12-20T09:33:54;8.87;;;6.70;;
15012;SDS011;7603;49.432;11.418;2022-12-20T09:36:22;14.37;;;7.53;;
15012;SDS011;7603;49.432;11.418;2022-12-20T09:38:48;10.15;;;7.80;;
15012;SDS011;7603;49.432;11.418;2022-12-20T09:44:03;14.68;;;7.82;;
15012;SDS011;7603;49.432;11.418;2022-12-20T09:46:42;12.95;;;8.00;;
15012;SDS011;7603;49.432;11.418;2022-12-20T09:49:16;11.38;;;7.95;;
15012;SDS011;7603;49.432;11.418;2022-12-20T09:57:46;17.48;;;8.13;;
15012;SDS011;7603;49.432;11.418;2022-12-20T10:00:15;11.07;;;7.38;;
15012;SDS011;7603;49.432;11.418;2022-12-20T10:02:42;11.10;;;7.47;;
15012;SDS011;7603;49.432;11.418;2022-12-20T10:05:14;11.95;;;6.97;;
15012;SDS011;7603;49.432;11.418;2022-12-20T10:10:37;12.70;;;7.20;;
15012;SDS011;7603;49.432;11.418;2022-12-20T10:19:16;14.80;;;7.47;;
15012;SDS011;7603;49.432;11.418;2022-12-20T10:22:19;8.95;;;6.88;;
15012;SDS011;7603;49.432;11.418;2022-12-20T10:24:52;18.92;;;7.28;;
15012;SDS011;7603;49.432;11.418;2022-12-20T10:27:24;13.68;;;7.95;;
15012;SDS011;7603;49.432;11.418;2022-12-20T10:29:50;10.48;;;7.15;;
15012;SDS011;7603;49.432;11.418;2022-12-20T10:32:17;10.73;;;7.00;;
15012;SDS011;7603;49.432;11.418;2022-12-20T10:35:04;12.70;;;7.32;;
15012;SDS011;7603;49.432;11.418;2022-12-20T10:37:55;11.45;;;6.97;;
15012;SDS011;7603;49.432;11.418;2022-12-20T10:43:27;12.20;;;6.72;;
15012;SDS011;7603;49.432;11.418;2022-12-20T10:46:07;16.33;;;6.97;;
15012;SDS011;7603;49.432;11.418;2022-12-20T10:48:35;9.05;;;5.68;;
15012;SDS011;7603;49.432;11.418;2022-12-20T10:53:36;11.77;;;7.28;;
15012;SDS011;7603;49.432;11.418;2022-12-20T10:56:25;11.35;;;6.45;;
15012;SDS011;7603;49.432;11.418;2022-12-20T10:59:00;8.23;;;7.13;;
15012;SDS011;7603;49.432;11.418;2022-12-20T11:01:28;12.27;;;7.88;;
15012;SDS011;7603;49.432;11.418;2022-12-20T11:06:25;13.73;;;6.22;;
15012;SDS011;7603;49.432;11.418;2022-12-20T11:08:52;10.73;;;6.45;;
15012;SDS011;7603;49.432;11.418;2022-12-20T11:11:23;12.50;;;7.15;;
15012;SDS011;7603;49.432;11.418;2022-12-20T11:13:49;11.13;;;6.60;;
15012;SDS011;7603;49.432;11.418;2022-12-20T11:18:55;12.13;;;7.35;;
15012;SDS011;7603;49.432;11.418;2022-12-20T11:26:48;8.80;;;5.88;;
15012;SDS011;7603;49.432;11.418;2022-12-20T11:30:23;9.52;;;6.32;;
15012;SDS011;7603;49.432;11.418;2022-12-20T11:35:54;23.20;;;8.57;;
15012;SDS011;7603;49.432;11.418;2022-12-20T11:38:41;13.02;;;6.78;;
15012;SDS011;7603;49.432;11.418;2022-12-20T11:46:35;14.98;;;8.02;;
15012;SDS011;7603;49.432;11.418;2022-12-20T11:52:19;10.40;;;8.30;;
15012;SDS011;7603;49.432;11.418;2022-12-20T11:57:45;9.05;;;6.22;;
15012;SDS011;7603;49.432;11.418;2022-12-20T12:00:12;10.60;;;6.32;;
15012;SDS011;7603;49.432;11.418;2022-12-20T12:02:44;8.45;;;6.93;;
15012;SDS011;7603;49.432;11.418;2022-12-20T12:05:19;7.78;;;5.10;;
15012;SDS011;7603;49.432;11.418;2022-12-20T12:08:05;7.00;;;6.30;;
15012;SDS011;7603;49.432;11.418;2022-12-20T12:10:39;9.68;;;6.10;;
15012;SDS011;7603;49.432;11.418;2022-12-20T12:13:15;9.00;;;5.95;;
15012;SDS011;7603;49.432;11.418;2022-12-20T12:15:51;6.88;;;5.80;;
15012;SDS011;7603;49.432;11.418;2022-12-20T12:18:28;7.88;;;5.85;;
15012;SDS011;7603;49.432;11.418;2022-12-20T12:26:28;8.55;;;5.93;;
15012;SDS011;7603;49.432;11.418;2022-12-20T12:28:57;11.20;;;6.72;;
15012;SDS011;7603;49.432;11.418;2022-12-20T12:31:33;11.32;;;7.22;;
15012;SDS011;7603;49.432;11.418;2022-12-20T12:45:00;10.27;;;6.63;;
15012;SDS011;7603;49.432;11.418;2022-12-20T12:47:38;9.10;;;6.00;;
15012;SDS011;7603;49.432;11.418;2022-12-20T12:50:16;9.15;;;6.63;;
15012;SDS011;7603;49.432;11.418;2022-12-20T12:52:55;8.60;;;6.95;;
15012;SDS011;7603;49.432;11.418;2022-12-20T12:58:13;22.63;;;8.73;;
15012;SDS011;7603;49.432;11.418;2022-12-20T13:03:15;13.30;;;7.05;;
15012;SDS011;7603;49.432;11.418;2022-12-20T13:06:08;9.98;;;8.00;;
15012;SDS011;7603;49.432;11.418;2022-12-20T13:11:40;9.90;;;6.88;;
15012;SDS011;7603;49.432;11.418;2022-12-20T13:14:48;10.48;;;7.03;;
15012;SDS011;7603;49.432;11.418;2022-12-20T13:30:29;9.05;;;6.20;;
15012;SDS011;7603;49.432;11.418;2022-12-20T13:38:02;10.25;;;6.38;;
15012;SDS011;7603;49.432;11.418;2022-12-20T13:43:09;11.88;;;7.50;;
15012;SDS011;7603;49.432;11.418;2022-12-20T13:45:44;12.63;;;6.53;;
15012;SDS011;7603;49.432;11.418;2022-12-20T13:48:14;8.93;;;6.22;;
15012;SDS011;7603;49.432;11.418;2022-12-20T13:50:49;9.63;;;5.93;;
15012;SDS011;7603;49.432;11.418;2022-12-20T13:53:17;9.48;;;6.75;;
15012;SDS011;7603;49.432;11.418;2022-12-20T13:55:46;20.15;;;9.93;;
15012;SDS011;7603;49.432;11.418;2022-12-20T13:58:17;12.18;;;7.88;;
15012;SDS011;7603;49.432;11.418;2022-12-20T14:00:52;10.75;;;6.80;;
15012;SDS011;7603;49.432;11.418;2022-12-20T14:03:28;10.40;;;7.10;;
15012;SDS011;7603;49.432;11.418;2022-12-20T14:05:56;10.57;;;7.00;;
15012;SDS011;7603;49.432;11.418;2022-12-20T14:08:26;10.20;;;6.63;;
15012;SDS011;7603;49.432;11.418;2022-12-20T14:11:05;9.15;;;6.55;;
15012;SDS011;7603;49.432;11.418;2022-12-20T14:13:39;14.55;;;6.93;;
15012;SDS011;7603;49.432;11.418;2022-12-20T14:16:16;10.85;;;6.82;;
15012;SDS011;7603;49.432;11.418;2022-12-20T14:18:49;12.75;;;7.20;;
15012;SDS011;7603;49.432;11.418;2022-12-20T14:21:37;17.27;;;8.77;;
15012;SDS011;7603;49.432;11.418;2022-12-20T14:24:10;16.75;;;9.38;;
15012;SDS011;7603;49.432;11.418;2022-12-20T14:26:46;12.30;;;7.57;;
15012;SDS011;7603;49.432;11.418;2022-12-20T14:29:19;9.55;;;7.38;;
15012;SDS011;7603;49.432;11.418;2022-12-20T14:31:52;15.02;;;7.65;;
15012;SDS011;7603;49.432;11.418;2022-12-20T14:34:20;10.13;;;7.30;;
15012;SDS011;7603;49.432;11.418;2022-12-20T14:36:49;11.60;;;8.15;;
15012;SDS011;7603;49.432;11.418;2022-12-20T14:42:00;16.35;;;8.30;;
15012;SDS011;7603;49.432;11.418;2022-12-20T14:44:36;17.77;;;7.90;;
15012;SDS011;7603;49.432;11.418;2022-12-20T14:50:32;16.98;;;11.80;;
15012;SDS011;7603;49.432;11.418;2022-12-20T14:53:00;13.82;;;7.53;;
15012;SDS011;7603;49.432;11.418;2022-12-20T14:55:31;16.20;;;7.90;;
15012;SDS011;7603;49.432;11.418;2022-12-20T14:58:00;11.87;;;7.80;;
15012;SDS011;7603;49.432;11.418;2022-12-20T15:00:30;12.00;;;7.75;;
15012;SDS011;7603;49.432;11.418;2022-12-20T15:05:49;14.03;;;7.60;;
15012;SDS011;7603;49.432;11.418;2022-12-20T15:11:00;13.40;;;7.20;;
15012;SDS011;7603;49.432;11.418;2022-12-20T15:13:33;12.48;;;7.63;;
15012;SDS011;7603;49.432;11.418;2022-12-20T15:16:24;13.73;;;7.75;;
15012;SDS011;7603;49.432;11.418;2022-12-20T15:18:55;12.35;;;7.20;;
15012;SDS011;7603;49.432;11.418;2022-12-20T15:21:34;13.40;;;8.82;;
15012;SDS011;7603;49.432;11.418;2022-12-20T15:24:03;13.35;;;7.57;;
15012;SDS011;7603;49.432;11.418;2022-12-20T15:26:34;10.33;;;6.83;;
15012;SDS011;7603;49.432;11.418;2022-12-20T15:29:01;12.80;;;7.80;;
15012;SDS011;7603;49.432;11.418;2022-12-20T15:31:26;9.02;;;7.18;;
15012;SDS011;7603;49.432;11.418;2022-12-20T15:33:53;11.88;;;7.28;;
15012;SDS011;7603;49.432;11.418;2022-12-20T15:36:26;11.20;;;7.83;;
15012;SDS011;7603;49.432;11.418;2022-12-20T15:38:56;12.27;;;7.80;;
15012;SDS011;7603;49.432;11.418;2022-12-20T15:41:23;13.07;;;8.17;;
15012;SDS011;7603;49.432;11.418;2022-12-20T15:43:54;17.48;;;8.82;;
15012;SDS011;7603;49.432;11.418;2022-12-20T15:46:25;12.32;;;7.97;;
15012;SDS011;7603;49.432;11.418;2022-12-20T15:48:52;13.38;;;7.57;;
15012;SDS011;7603;49.432;11.418;2022-12-20T15:51:36;19.03;;;9.77;;
15012;SDS011;7603;49.432;11.418;2022-12-20T15:54:05;11.32;;;6.97;;
15012;SDS011;7603;49.432;11.418;2022-12-20T15:56:38;13.52;;;7.80;;
15012;SDS011;7603;49.432;11.418;2022-12-20T15:59:03;15.77;;;8.43;;
15012;SDS011;7603;49.432;11.418;2022-12-20T16:01:33;14.23;;;8.43;;
15012;SDS011;7603;49.432;11.418;2022-12-20T16:04:01;13.73;;;7.93;;
15012;SDS011;7603;49.432;11.418;2022-12-20T16:06:27;18.00;;;9.10;;
15012;SDS011;7603;49.432;11.418;2022-12-20T16:08:53;14.60;;;8.85;;
15012;SDS011;7603;49.432;11.418;2022-12-20T16:11:20;15.57;;;8.27;;
15012;SDS011;7603;49.432;11.418;2022-12-20T16:13:48;15.13;;;8.07;;
15012;SDS011;7603;49.432;11.418;2022-12-20T16:16:15;13.87;;;8.10;;
15012;SDS011;7603;49.432;11.418;2022-12-20T16:18:42;13.67;;;8.77;;
15012;SDS011;7603;49.432;11.418;2022-12-20T16:21:15;13.23;;;7.90;;
15012;SDS011;7603;49.432;11.418;2022-12-20T16:23:43;13.63;;;8.97;;
15012;SDS011;7603;49.432;11.418;2022-12-20T16:26:11;14.20;;;8.70;;
15012;SDS011;7603;49.432;11.418;2022-12-20T16:28:38;16.20;;;8.63;;
15012;SDS011;7603;49.432;11.418;2022-12-20T16:31:08;12.97;;;7.43;;
15012;SDS011;7603;49.432;11.418;2022-12-20T16:33:58;13.43;;;8.70;;
15012;SDS011;7603;49.432;11.418;2022-12-20T16:36:27;14.53;;;8.27;;
15012;SDS011;7603;49.432;11.418;2022-12-20T16:38:53;12.93;;;7.97;;
15012;SDS011;7603;49.432;11.418;2022-12-20T16:41:20;13.98;;;8.98;;
15012;SDS011;7603;49.432;11.418;2022-12-20T16:43:54;11.67;;;7.93;;
15012;SDS011;7603;49.432;11.418;2022-12-20T16:46:23;18.05;;;9.35;;
15012;SDS011;7603;49.432;11.418;2022-12-20T16:48:51;21.27;;;9.50;;
15012;SDS011;7603;49.432;11.418;2022-12-20T16:51:30;21.10;;;9.60;;
15012;SDS011;7603;49.432;11.418;2022-12-20T16:54:13;14.93;;;8.73;;